createdAt,value
2019-05-05T00:01:46.701Z,11.20
2019-05-05T00:04:28.720Z,11.03
2019-05-05T00:06:58.887Z,9.77
2019-05-05T00:09:29.196Z,9.97
2019-05-05T00:12:20.385Z,9.93
2019-05-05T00:15:55.245Z,9.43
2019-05-05T00:18:27.039Z,9.73
2019-05-05T00:20:57.217Z,10.67
2019-05-05T00:23:27.349Z,10.00
2019-05-05T00:25:57.819Z,10.07
2019-05-05T00:28:27.940Z,8.70
2019-05-05T00:30:58.098Z,10.27
2019-05-05T00:33:28.202Z,9.83
2019-05-05T00:35:58.443Z,9.40
2019-05-05T00:38:28.595Z,10.20
2019-05-05T00:40:58.491Z,10.03
2019-05-05T00:43:28.545Z,8.73
2019-05-05T00:46:04.583Z,10.20
2019-05-05T00:48:37.195Z,10.87
2019-05-05T00:51:07.322Z,9.17
2019-05-05T00:53:37.443Z,10.47
2019-05-05T00:56:07.631Z,8.37
2019-05-05T00:58:39.608Z,9.50
2019-05-05T01:01:14.688Z,8.80
2019-05-05T01:03:44.892Z,8.40
2019-05-05T01:06:18.687Z,8.57
2019-05-05T01:08:48.846Z,10.60
2019-05-05T01:11:19.216Z,11.87
2019-05-05T01:13:49.372Z,8.93
2019-05-05T01:16:19.541Z,9.10
2019-05-05T01:18:49.621Z,7.80
2019-05-05T01:21:19.779Z,8.73
2019-05-05T01:23:49.835Z,8.27
2019-05-05T01:26:19.989Z,9.23
2019-05-05T01:28:50.143Z,9.03
2019-05-05T01:31:20.444Z,9.57
2019-05-05T01:34:11.916Z,8.50
2019-05-05T01:36:42.187Z,9.60
2019-05-05T01:39:21.877Z,9.40
2019-05-05T01:41:55.478Z,8.50
2019-05-05T01:44:25.609Z,7.63
2019-05-05T01:46:55.808Z,7.87
2019-05-05T01:49:25.939Z,9.47
2019-05-05T01:51:56.157Z,9.03
2019-05-05T01:54:26.272Z,9.43
2019-05-05T01:56:56.531Z,9.63
2019-05-05T01:59:27.065Z,11.37
2019-05-05T02:01:57.274Z,10.97
2019-05-05T02:04:27.334Z,9.30
2019-05-05T02:06:57.612Z,11.47
2019-05-05T02:09:27.800Z,9.73
2019-05-05T02:11:58.315Z,9.63
2019-05-05T02:14:28.485Z,11.03
2019-05-05T02:16:58.647Z,8.83
2019-05-05T02:19:28.805Z,10.30
2019-05-05T02:21:58.988Z,11.10
2019-05-05T02:24:29.140Z,16.60
2019-05-05T02:26:59.351Z,12.07
2019-05-05T02:29:36.825Z,13.07
2019-05-05T02:32:19.393Z,15.27
2019-05-05T02:34:56.148Z,18.90
2019-05-05T02:37:25.648Z,12.83
2019-05-05T02:39:58.860Z,13.67
2019-05-05T02:42:25.131Z,12.53
2019-05-05T02:44:55.526Z,14.93
2019-05-05T02:47:34.649Z,12.27
2019-05-05T02:50:05.195Z,12.77
2019-05-05T02:52:34.671Z,9.87
2019-05-05T02:55:04.337Z,13.03
2019-05-05T02:57:34.650Z,10.77
2019-05-05T03:00:10.307Z,12.73
2019-05-05T03:02:40.511Z,11.10
2019-05-05T03:05:10.749Z,10.80
2019-05-05T03:07:41.060Z,10.97
2019-05-05T03:10:11.263Z,12.10
2019-05-05T03:12:43.806Z,12.90
2019-05-05T03:15:14.741Z,13.60
2019-05-05T03:17:45.158Z,10.97
2019-05-05T03:20:15.444Z,13.47
2019-05-05T03:22:45.767Z,14.03
2019-05-05T03:25:15.311Z,13.27
2019-05-05T03:27:45.537Z,13.63
2019-05-05T03:30:16.200Z,14.23
2019-05-05T03:32:46.436Z,13.63
2019-05-05T03:35:16.605Z,15.47
2019-05-05T03:37:47.307Z,12.97
2019-05-05T03:40:23.757Z,13.30
2019-05-05T03:42:56.109Z,14.73
2019-05-05T03:45:34.235Z,13.73
2019-05-05T03:48:04.689Z,13.63
2019-05-05T03:50:34.573Z,12.20
2019-05-05T03:53:05.012Z,13.60
2019-05-05T03:55:35.219Z,14.63
2019-05-05T03:58:05.417Z,13.53
2019-05-05T04:01:54.960Z,14.23
2019-05-05T04:04:26.210Z,12.60
2019-05-05T04:06:57.036Z,12.67
2019-05-05T04:09:27.330Z,15.13
2019-05-05T04:11:57.543Z,14.43
2019-05-05T04:14:27.725Z,13.23
2019-05-05T04:18:03.993Z,13.67
2019-05-05T04:20:44.177Z,14.50
2019-05-05T04:23:14.119Z,15.40
2019-05-05T04:25:44.025Z,15.47
2019-05-05T04:28:13.776Z,16.67
2019-05-05T04:30:44.446Z,13.03
2019-05-05T04:33:14.417Z,14.67
2019-05-05T04:35:44.599Z,15.17
2019-05-05T04:38:14.925Z,15.63
2019-05-05T04:40:45.034Z,14.27
2019-05-05T04:43:15.190Z,16.13
2019-05-05T04:45:45.350Z,13.03
2019-05-05T04:48:20.107Z,15.00
2019-05-05T04:51:29.041Z,12.80
2019-05-05T04:54:04.342Z,11.57
2019-05-05T04:56:34.659Z,16.67
2019-05-05T04:59:04.895Z,14.23
2019-05-05T05:01:35.178Z,12.07
2019-05-05T05:04:10.360Z,16.63
2019-05-05T05:06:44.888Z,13.50
2019-05-05T05:09:15.042Z,13.53
2019-05-05T05:11:45.151Z,13.07
2019-05-05T05:14:15.292Z,11.50
2019-05-05T05:16:44.904Z,12.10
2019-05-05T05:19:14.964Z,12.00
2019-05-05T05:21:58.025Z,15.33
2019-05-05T05:24:15.685Z,10.70
2019-05-05T05:26:45.945Z,14.07
2019-05-05T05:29:16.142Z,16.67
2019-05-05T05:31:46.277Z,15.03
2019-05-05T05:34:16.451Z,15.13
2019-05-05T05:36:46.709Z,15.40
2019-05-05T05:39:21.952Z,12.27
2019-05-05T05:41:53.968Z,10.60
2019-05-05T05:44:28.165Z,14.70
2019-05-05T05:47:03.485Z,16.07
2019-05-05T05:49:36.726Z,16.20
2019-05-05T05:52:16.271Z,16.63
2019-05-05T05:54:36.380Z,16.77
2019-05-05T05:57:06.557Z,16.23
2019-05-05T05:59:36.725Z,13.10
2019-05-05T06:02:12.226Z,15.13
2019-05-05T06:04:37.491Z,12.67
2019-05-05T06:07:07.612Z,16.27
2019-05-05T06:09:37.801Z,11.20
2019-05-05T06:12:08.127Z,16.07
2019-05-05T06:14:38.543Z,14.03
2019-05-05T06:17:08.688Z,19.23
2019-05-05T06:19:38.827Z,17.30
2019-05-05T06:22:08.939Z,12.67
2019-05-05T06:24:39.413Z,15.33
2019-05-05T06:27:10.643Z,11.83
2019-05-05T06:29:40.738Z,16.57
2019-05-05T06:32:10.868Z,13.70
2019-05-05T06:34:41.004Z,20.10
2019-05-05T06:37:11.120Z,18.27
2019-05-05T06:39:41.328Z,19.57
2019-05-05T06:42:23.668Z,15.33
2019-05-05T06:44:57.489Z,13.97
2019-05-05T06:47:31.685Z,11.27
2019-05-05T06:50:03.574Z,12.90
2019-05-05T06:52:43.822Z,9.70
2019-05-05T06:55:03.728Z,11.87
2019-05-05T06:57:34.300Z,9.30
2019-05-05T07:00:03.634Z,11.87
2019-05-05T07:02:34.264Z,11.07
2019-05-05T07:05:04.138Z,11.20
2019-05-05T07:07:34.393Z,8.67
2019-05-05T07:10:04.196Z,11.53
2019-05-05T07:12:34.806Z,11.13
2019-05-05T07:15:04.855Z,11.10
2019-05-05T07:17:34.994Z,8.90
2019-05-05T07:20:05.854Z,9.07
2019-05-05T07:22:36.007Z,9.30
2019-05-05T07:25:06.336Z,11.40
2019-05-05T07:27:36.464Z,10.07
2019-05-05T07:30:06.200Z,8.97
2019-05-05T07:32:36.205Z,12.00
2019-05-05T07:35:14.702Z,10.47
2019-05-05T07:37:44.847Z,11.47
2019-05-05T07:40:15.126Z,9.73
2019-05-05T07:42:45.251Z,12.67
2019-05-05T07:45:22.489Z,9.93
2019-05-05T07:47:47.381Z,10.87
2019-05-05T07:50:28.979Z,10.23
2019-05-05T07:52:46.230Z,9.13
2019-05-05T07:55:16.451Z,7.83
2019-05-05T07:57:46.562Z,8.70
2019-05-05T08:00:16.959Z,8.93
2019-05-05T08:02:47.089Z,7.70
2019-05-05T08:05:17.290Z,7.10
2019-05-05T08:07:47.415Z,8.43
2019-05-05T08:10:17.600Z,6.87
2019-05-05T08:12:47.723Z,9.27
2019-05-05T08:15:18.349Z,6.17
2019-05-05T08:17:53.992Z,6.50
2019-05-05T08:20:27.622Z,7.00
2019-05-05T08:22:57.848Z,7.50
2019-05-05T08:25:46.658Z,4.17
2019-05-05T08:28:24.186Z,4.17
2019-05-05T08:31:00.900Z,4.83
2019-05-05T08:33:30.946Z,6.57
2019-05-05T08:36:01.093Z,5.53
2019-05-05T08:38:31.141Z,5.03
2019-05-05T08:41:01.225Z,3.17
2019-05-05T08:43:31.345Z,2.13
2019-05-05T08:46:01.499Z,2.53
2019-05-05T08:48:31.613Z,2.97
2019-05-05T08:51:01.930Z,2.77
2019-05-05T08:53:42.494Z,2.80
2019-05-05T08:56:04.092Z,2.83
2019-05-05T08:58:34.410Z,2.13
2019-05-05T09:01:04.358Z,2.07
2019-05-05T09:03:33.768Z,3.17
2019-05-05T09:06:04.696Z,1.87
2019-05-05T09:08:34.740Z,2.87
2019-05-05T09:11:04.930Z,3.00
2019-05-05T09:13:34.718Z,3.13
2019-05-05T09:16:05.463Z,4.73
2019-05-05T09:18:37.411Z,3.20
2019-05-05T09:21:07.570Z,2.17
2019-05-05T09:23:37.995Z,1.77
2019-05-05T09:26:27.672Z,1.90
2019-05-05T09:29:04.373Z,1.77
2019-05-05T09:31:34.392Z,1.93
2019-05-05T09:34:04.148Z,2.07
2019-05-05T09:36:34.857Z,5.03
2019-05-05T09:39:04.432Z,2.47
2019-05-05T09:41:34.840Z,7.57
2019-05-05T09:44:05.446Z,3.90
2019-05-05T09:46:36.007Z,2.33
2019-05-05T09:49:06.647Z,4.57
2019-05-05T09:51:37.191Z,2.80
2019-05-05T09:54:14.147Z,4.30
2019-05-05T09:56:38.114Z,2.70
2019-05-05T09:59:08.619Z,2.27
2019-05-05T10:01:39.123Z,1.40
2019-05-05T10:04:09.995Z,1.83
2019-05-05T10:06:40.684Z,1.93
2019-05-05T10:09:13.615Z,2.37
2019-05-05T10:11:41.864Z,4.30
2019-05-05T10:14:14.195Z,6.03
2019-05-05T10:16:42.167Z,5.17
2019-05-05T10:19:13.943Z,5.37
2019-05-05T10:21:44.363Z,2.80
2019-05-05T10:24:28.559Z,3.50
2019-05-05T10:26:54.310Z,2.60
2019-05-05T10:29:26.822Z,6.90
2019-05-05T10:31:57.210Z,3.60
2019-05-05T10:34:27.523Z,2.60
2019-05-05T10:36:58.056Z,2.90
2019-05-05T10:39:33.486Z,3.63
2019-05-05T10:42:04.046Z,5.47
2019-05-05T10:44:34.032Z,6.13
2019-05-05T10:47:04.625Z,2.87
2019-05-05T10:49:33.795Z,3.40
2019-05-05T10:52:04.022Z,2.00
2019-05-05T10:54:44.245Z,1.97
2019-05-05T10:57:04.736Z,2.10
2019-05-05T10:59:35.347Z,1.93
2019-05-05T11:02:05.817Z,2.90
2019-05-05T11:04:44.239Z,2.30
2019-05-05T11:07:14.602Z,1.97
2019-05-05T11:09:44.791Z,2.53
2019-05-05T11:12:15.393Z,6.10
2019-05-05T11:14:45.938Z,3.47
2019-05-05T11:17:16.442Z,2.00
2019-05-05T11:22:41.311Z,2.63
2019-05-05T11:25:13.913Z,2.77
2019-05-05T11:27:43.999Z,2.80
2019-05-05T11:30:17.021Z,2.00
2019-05-05T11:32:52.383Z,2.30
2019-05-05T11:35:24.423Z,3.93
2019-05-05T11:37:54.270Z,4.10
2019-05-05T11:40:27.964Z,1.70
2019-05-05T11:42:58.501Z,3.30
2019-05-05T11:45:29.032Z,2.60
2019-05-05T11:48:00.192Z,2.93
2019-05-05T11:50:30.340Z,2.77
2019-05-05T11:53:00.518Z,2.47
2019-05-05T11:55:30.589Z,2.10
2019-05-05T11:58:00.756Z,7.60
2019-05-05T12:00:31.881Z,2.17
2019-05-05T12:03:03.810Z,5.37
2019-05-05T12:05:33.675Z,5.13
2019-05-05T12:08:03.954Z,6.20
2019-05-05T12:10:43.911Z,4.80
2019-05-05T12:13:14.750Z,2.20
2019-05-05T12:15:44.631Z,4.00
2019-05-05T12:18:14.486Z,3.50
2019-05-05T12:20:44.523Z,4.17
2019-05-05T12:23:14.840Z,2.90
2019-05-05T12:26:51.110Z,3.07
2019-05-05T12:29:25.222Z,2.87
2019-05-05T12:31:55.660Z,4.60
2019-05-05T12:34:26.235Z,1.53
2019-05-05T12:36:55.990Z,3.60
2019-05-05T12:39:27.043Z,5.27
2019-05-05T12:41:57.445Z,2.23
2019-05-05T12:44:34.708Z,8.97
2019-05-05T12:47:09.676Z,2.87
2019-05-05T12:49:39.778Z,1.40
2019-05-05T12:52:10.288Z,6.43
2019-05-05T12:54:40.768Z,2.10
2019-05-05T12:57:13.556Z,6.20
2019-05-05T12:59:41.928Z,5.93
2019-05-05T13:02:14.267Z,3.27
2019-05-05T13:04:42.534Z,6.57
2019-05-05T13:07:13.652Z,9.07
2019-05-05T13:09:44.086Z,4.77
2019-05-05T13:12:15.055Z,6.87
2019-05-05T13:14:44.987Z,4.73
2019-05-05T13:17:15.084Z,3.60
2019-05-05T13:19:50.447Z,8.63
2019-05-05T13:22:26.753Z,4.40
2019-05-05T13:25:04.603Z,2.93
2019-05-05T13:27:36.982Z,6.33
2019-05-05T13:30:07.951Z,6.33
2019-05-05T13:32:38.504Z,6.03
2019-05-05T13:35:09.131Z,5.97
2019-05-05T13:37:39.324Z,4.43
2019-05-05T13:40:09.939Z,4.63
2019-05-05T13:42:40.489Z,4.83
2019-05-05T13:45:34.298Z,5.77
2019-05-05T13:48:03.492Z,4.53
2019-05-05T13:50:36.020Z,1.70
2019-05-05T13:53:06.516Z,2.53
2019-05-05T13:55:36.966Z,3.33
2019-05-05T13:58:08.917Z,3.13
2019-05-05T14:00:37.818Z,2.80
2019-05-05T14:03:08.228Z,2.57
2019-05-05T14:05:38.026Z,2.30
2019-05-05T14:08:08.563Z,2.87
2019-05-05T14:10:39.012Z,3.17
2019-05-05T14:13:10.555Z,3.60
2019-05-05T14:15:39.900Z,7.47
2019-05-05T14:18:10.404Z,3.83
2019-05-05T14:20:40.929Z,5.90
2019-05-05T14:23:11.263Z,23.37
2019-05-05T14:25:43.955Z,6.03
2019-05-05T14:28:14.018Z,9.03
2019-05-05T14:30:50.820Z,7.93
2019-05-05T14:33:23.790Z,8.07
2019-05-05T14:35:59.295Z,10.07
2019-05-05T14:38:36.623Z,5.93
2019-05-05T14:41:07.352Z,4.60
2019-05-05T14:43:37.055Z,12.23
2019-05-05T14:46:07.487Z,5.97
2019-05-05T14:48:38.031Z,3.30
2019-05-05T14:51:08.724Z,3.97
2019-05-05T14:53:39.208Z,4.10
2019-05-05T14:56:09.647Z,4.23
2019-05-05T14:58:40.130Z,2.70
2019-05-05T15:01:10.651Z,9.57
2019-05-05T15:03:40.905Z,2.90
2019-05-05T15:06:18.017Z,2.87
2019-05-05T15:08:51.184Z,3.70
2019-05-05T15:11:33.759Z,1.60
2019-05-05T15:14:04.385Z,1.77
2019-05-05T15:16:34.569Z,15.57
2019-05-05T15:19:03.856Z,11.30
2019-05-05T15:21:33.991Z,18.93
2019-05-05T15:24:03.855Z,6.57
2019-05-05T15:26:34.479Z,6.30
2019-05-05T15:29:04.808Z,7.33
2019-05-05T15:31:35.179Z,10.90
2019-05-05T15:34:05.911Z,13.77
2019-05-05T15:36:36.454Z,18.27
2019-05-05T15:39:08.831Z,14.93
2019-05-05T15:41:41.603Z,12.53
2019-05-05T15:44:09.645Z,12.77
2019-05-05T15:46:40.182Z,11.60
2019-05-05T15:49:10.588Z,6.37
2019-05-05T15:51:44.185Z,2.17
2019-05-05T15:54:14.079Z,10.20
2019-05-05T15:56:43.117Z,8.40
2019-05-05T15:59:14.328Z,13.63
2019-05-05T16:01:44.268Z,2.97
2019-05-05T16:04:14.709Z,16.13
2019-05-05T16:06:45.897Z,9.30
2019-05-05T16:09:16.079Z,21.77
2019-05-05T16:11:46.830Z,8.47
2019-05-05T16:14:16.910Z,4.10
2019-05-05T16:16:57.271Z,8.03
2019-05-05T16:19:36.528Z,1.90
2019-05-05T16:22:14.572Z,17.20
2019-05-05T16:24:44.746Z,6.37
2019-05-05T16:27:21.692Z,7.07
2019-05-05T16:29:46.565Z,12.67
2019-05-05T16:32:21.788Z,9.30
2019-05-05T16:34:47.472Z,14.20
2019-05-05T16:37:17.988Z,9.33
2019-05-05T16:39:48.321Z,9.90
2019-05-05T16:42:18.768Z,9.40
2019-05-05T16:44:49.255Z,5.27
2019-05-05T16:47:19.591Z,14.07
2019-05-05T16:49:50.095Z,10.80
2019-05-05T16:52:24.590Z,7.47
2019-05-05T16:54:59.928Z,9.40
2019-05-05T16:57:33.931Z,12.17
2019-05-05T17:00:00.930Z,11.43
2019-05-05T17:02:33.273Z,6.27
2019-05-05T17:05:02.105Z,5.87
2019-05-05T17:07:34.337Z,7.60
2019-05-05T17:10:05.997Z,7.17
2019-05-05T17:12:33.935Z,7.17
2019-05-05T17:16:09.037Z,7.17
2019-05-05T17:18:46.518Z,7.33
2019-05-05T17:21:22.586Z,6.10
2019-05-05T17:23:53.994Z,3.73
2019-05-05T17:26:24.335Z,3.90
2019-05-05T17:28:54.226Z,3.60
2019-05-05T17:31:24.698Z,13.30
2019-05-05T17:33:54.960Z,44.10
2019-05-05T17:36:25.455Z,14.60
2019-05-05T17:38:55.721Z,13.87
2019-05-05T17:41:30.739Z,6.00
2019-05-05T17:44:06.442Z,8.63
2019-05-05T17:46:44.187Z,11.17
2019-05-05T17:49:26.870Z,23.30
2019-05-05T17:52:14.317Z,13.40
2019-05-05T17:54:46.325Z,9.10
2019-05-05T17:57:15.987Z,6.57
2019-05-05T17:59:46.100Z,14.33
2019-05-05T18:02:17.184Z,9.17
2019-05-05T18:04:47.887Z,7.00
2019-05-05T18:07:30.167Z,11.90
2019-05-05T18:10:06.433Z,7.07
2019-05-05T18:13:14.310Z,9.50
2019-05-05T18:15:49.643Z,22.43
2019-05-05T18:18:19.960Z,39.43
2019-05-05T18:20:50.702Z,27.73
2019-05-05T18:23:23.297Z,45.30
2019-05-05T18:25:51.998Z,29.47
2019-05-05T18:28:24.557Z,23.93
2019-05-05T18:30:53.941Z,19.33
2019-05-05T18:33:24.684Z,14.27
2019-05-05T18:35:54.251Z,17.23
2019-05-05T18:38:24.641Z,13.33
2019-05-05T18:40:55.327Z,17.77
2019-05-05T18:43:30.972Z,18.83
2019-05-05T18:46:04.387Z,24.20
2019-05-05T18:48:34.563Z,18.67
2019-05-05T18:51:03.945Z,15.13
2019-05-05T18:53:34.310Z,13.57
2019-05-05T18:56:04.785Z,26.37
2019-05-05T18:58:35.121Z,22.67
2019-05-05T19:01:21.332Z,20.10
2019-05-05T19:03:56.732Z,19.47
2019-05-05T19:06:34.374Z,20.93
2019-05-05T19:09:04.528Z,20.90
2019-05-05T19:11:34.099Z,19.20
2019-05-05T19:14:03.647Z,20.10
2019-05-05T19:16:34.630Z,17.07
2019-05-05T19:19:04.116Z,18.57
2019-05-05T19:21:37.349Z,19.47
2019-05-05T19:24:07.748Z,25.40
2019-05-05T19:26:38.249Z,24.40
2019-05-05T19:29:08.700Z,19.53
2019-05-05T19:31:39.132Z,21.53
2019-05-05T19:34:09.777Z,20.13
2019-05-05T19:36:40.219Z,12.93
2019-05-05T19:39:10.819Z,14.43
2019-05-05T19:41:41.388Z,12.07
2019-05-05T19:44:11.964Z,10.83
2019-05-05T19:46:50.071Z,8.40
2019-05-05T19:49:20.948Z,12.50
2019-05-05T19:51:53.950Z,9.83
2019-05-05T19:54:21.694Z,12.00
2019-05-05T19:56:54.069Z,12.13
2019-05-05T19:59:22.765Z,9.97
2019-05-05T20:01:54.014Z,9.60
2019-05-05T20:04:24.143Z,8.90
2019-05-05T20:06:54.785Z,10.63
2019-05-05T20:09:24.727Z,9.37
2019-05-05T20:11:54.874Z,8.33
2019-05-05T20:14:25.189Z,12.33
2019-05-05T20:17:06.786Z,10.87
2019-05-05T20:19:43.743Z,11.27
2019-05-05T20:22:14.378Z,10.47
2019-05-05T20:24:44.354Z,11.23
2019-05-05T20:27:14.082Z,9.47
2019-05-05T20:29:44.417Z,8.93
2019-05-05T20:32:15.375Z,8.43
2019-05-05T20:34:51.024Z,6.17
2019-05-05T20:37:24.427Z,6.13
2019-05-05T20:39:55.087Z,6.20
2019-05-05T20:42:25.596Z,7.43
2019-05-05T20:44:56.008Z,8.00
2019-05-05T20:47:26.665Z,8.97
2019-05-05T20:49:57.065Z,7.17
2019-05-05T20:52:27.364Z,7.80
2019-05-05T20:54:57.714Z,7.23
2019-05-05T20:57:28.368Z,7.80
2019-05-05T20:59:58.792Z,7.17
2019-05-05T21:02:29.658Z,6.90
2019-05-05T21:05:00.016Z,7.87
2019-05-05T21:07:30.472Z,10.23
2019-05-05T21:10:00.995Z,11.30
2019-05-05T21:12:41.726Z,7.77
2019-05-05T21:15:01.874Z,11.20
2019-05-05T21:17:33.774Z,7.40
2019-05-05T21:20:04.349Z,6.87
2019-05-05T21:22:38.345Z,6.33
2019-05-05T21:25:14.270Z,6.60
2019-05-05T21:27:43.702Z,7.10
2019-05-05T21:30:14.315Z,9.70
2019-05-05T21:32:44.659Z,9.40
2019-05-05T21:35:15.219Z,10.60
2019-05-05T21:37:45.879Z,8.17
2019-05-05T21:40:16.584Z,6.67
2019-05-05T21:42:47.218Z,7.27
2019-05-05T21:45:17.683Z,7.57
2019-05-05T21:47:48.146Z,6.33
2019-05-05T21:50:21.377Z,6.40
2019-05-05T21:52:57.348Z,4.97
2019-05-05T21:55:33.899Z,6.20
2019-05-05T21:58:06.703Z,5.30
2019-05-05T22:00:44.126Z,4.57
2019-05-05T22:03:14.020Z,5.30
2019-05-05T22:05:43.412Z,5.37
2019-05-05T22:08:14.311Z,5.33
2019-05-05T22:10:44.407Z,4.60
2019-05-05T22:13:15.076Z,5.33
2019-05-05T22:15:45.540Z,5.50
2019-05-05T22:18:15.868Z,6.97
2019-05-05T22:20:50.512Z,5.77
2019-05-05T22:23:21.055Z,9.00
2019-05-05T22:25:51.468Z,5.00
2019-05-05T22:28:21.995Z,4.83
2019-05-05T22:30:55.345Z,7.43
2019-05-05T22:33:24.673Z,5.03
2019-05-05T22:35:54.871Z,6.30
2019-05-05T22:38:24.576Z,6.30
2019-05-05T22:40:54.542Z,9.33
2019-05-05T22:43:24.452Z,5.07
2019-05-05T22:45:56.134Z,6.37
2019-05-05T22:48:25.476Z,7.47
2019-05-05T22:50:56.021Z,6.53
2019-05-05T22:53:26.479Z,5.13
2019-05-05T22:55:57.012Z,4.63
2019-05-05T22:58:27.465Z,6.10
2019-05-05T23:00:57.959Z,6.00
2019-05-05T23:03:32.624Z,4.50
2019-05-05T23:06:07.160Z,6.47
2019-05-05T23:08:37.631Z,5.13
2019-05-05T23:11:07.847Z,5.50
2019-05-05T23:13:37.996Z,5.63
2019-05-05T23:16:19.997Z,6.10
2019-05-05T23:18:50.526Z,7.93
2019-05-05T23:21:24.856Z,6.10
2019-05-05T23:23:59.415Z,7.07
2019-05-05T23:26:31.286Z,6.10
2019-05-05T23:29:01.417Z,5.43
2019-05-05T23:31:33.567Z,7.33
2019-05-05T23:34:03.958Z,6.00
2019-05-05T23:36:33.941Z,6.53
2019-05-05T23:39:03.998Z,6.20
2019-05-05T23:41:34.892Z,5.23
2019-05-05T23:44:04.538Z,6.67
2019-05-05T23:46:34.983Z,7.13
2019-05-05T23:49:05.656Z,6.13
2019-05-05T23:51:36.264Z,7.87
2019-05-05T23:54:06.363Z,6.07
2019-05-05T23:56:36.822Z,6.33
2019-05-05T23:59:07.047Z,5.90
